aviador You're here:

PAIG Decoded Metar

IGIUGIG in AK, USA
Report Time2017-08-18 17:56:00
UTC Time2017-08-18 18:18:51
Flight Rules ifr IFR
Wind230° at 06 kt
W.Decomp.*RWY 23: 5.7 kt HW 2 kt LCW
W.Rank230° ranks 11
Current wind is below 230° avg. (7.4)
Visibility9999 m
Phenomena:N/A
Clouds:Overcast 005 Hf
Expected CloudBase > 400 ft AGL from Temp-Dew spread
Ceiling500 ft
Temp12°C (ISA -3)
Dew Point11°C (94% RH)
AAT10.2°C
QNH1003 hPa
Density Alt272 ft
Elevation92 ft
Report Wrong Elevation
Raw Report
PAIG 181756Z AUTO 23006KT 10SM OVC005 12/11 A2963 RMK AO2 CIG
003V010 SLP046 60013 T01170111 10117 20100 51011 $=

Extra information for PAIG:More info

Metar Taf Metar & Taf Last 4 Metars F.Rules Stats Wind Profile Meteogram Temp Stats Airport Information Weather charts Add Link Nearby VenuesMetar ALERT Operation Metar Decoded Social comments

AIRNAV info for PAIG